sensor_id;sensor_type;location;lat;lon;timestamp;temperature;humidity
21861;DHT22;11095;48.066;8.540;2022-09-02T00:00:45;12.90;99.90
21861;DHT22;11095;48.066;8.540;2022-09-02T00:03:12;12.90;99.90
21861;DHT22;11095;48.066;8.540;2022-09-02T00:05:38;12.80;99.90
21861;DHT22;11095;48.066;8.540;2022-09-02T00:08:04;12.70;99.90
21861;DHT22;11095;48.066;8.540;2022-09-02T00:10:32;12.60;99.90
21861;DHT22;11095;48.066;8.540;2022-09-02T00:12:59;12.50;99.90
21861;DHT22;11095;48.066;8.540;2022-09-02T00:15:24;12.40;99.90
21861;DHT22;11095;48.066;8.540;2022-09-02T00:17:50;12.40;99.90
21861;DHT22;11095;48.066;8.540;2022-09-02T00:20:17;12.20;99.90
21861;DHT22;11095;48.066;8.540;2022-09-02T00:22:43;12.20;99.90
21861;DHT22;11095;48.066;8.540;2022-09-02T00:25:09;12.10;99.90
21861;DHT22;11095;48.066;8.540;2022-09-02T00:27:34;12.00;99.90
21861;DHT22;11095;48.066;8.540;2022-09-02T00:30:00;12.00;99.90
21861;DHT22;11095;48.066;8.540;2022-09-02T00:32:26;11.90;99.90
21861;DHT22;11095;48.066;8.540;2022-09-02T00:34:52;11.80;99.90
21861;DHT22;11095;48.066;8.540;2022-09-02T00:37:18;11.70;99.90
21861;DHT22;11095;48.066;8.540;2022-09-02T00:39:43;11.70;99.90
21861;DHT22;11095;48.066;8.540;2022-09-02T00:42:09;11.60;99.90
21861;DHT22;11095;48.066;8.540;2022-09-02T00:44:35;11.50;99.90
21861;DHT22;11095;48.066;8.540;2022-09-02T00:47:01;11.40;99.90
21861;DHT22;11095;48.066;8.540;2022-09-02T00:49:30;11.40;99.90
21861;DHT22;11095;48.066;8.540;2022-09-02T00:52:05;11.30;99.90
21861;DHT22;11095;48.066;8.540;2022-09-02T00:54:38;11.30;99.90
21861;DHT22;11095;48.066;8.540;2022-09-02T00:57:09;11.30;99.90
21861;DHT22;11095;48.066;8.540;2022-09-02T00:59:43;11.20;99.90
21861;DHT22;11095;48.066;8.540;2022-09-02T01:02:11;11.20;99.90
21861;DHT22;11095;48.066;8.540;2022-09-02T01:04:38;11.20;99.90
21861;DHT22;11095;48.066;8.540;2022-09-02T01:07:04;11.10;99.90
21861;DHT22;11095;48.066;8.540;2022-09-02T01:09:30;11.10;99.90
21861;DHT22;11095;48.066;8.540;2022-09-02T01:11:58;11.00;99.90
21861;DHT22;11095;48.066;8.540;2022-09-02T01:14:28;11.00;99.90
21861;DHT22;11095;48.066;8.540;2022-09-02T01:16:57;11.00;99.90
21861;DHT22;11095;48.066;8.540;2022-09-02T01:21:56;10.90;99.90
21861;DHT22;11095;48.066;8.540;2022-09-02T01:24:27;10.90;99.90
21861;DHT22;11095;48.066;8.540;2022-09-02T01:26:56;10.80;99.90
21861;DHT22;11095;48.066;8.540;2022-09-02T01:29:24;10.80;99.90
21861;DHT22;11095;48.066;8.540;2022-09-02T01:31:49;10.70;99.90
21861;DHT22;11095;48.066;8.540;2022-09-02T01:34:16;10.70;99.90
21861;DHT22;11095;48.066;8.540;2022-09-02T01:36:42;10.70;99.90
21861;DHT22;11095;48.066;8.540;2022-09-02T01:39:09;10.70;99.90
21861;DHT22;11095;48.066;8.540;2022-09-02T01:41:36;10.60;99.90
21861;DHT22;11095;48.066;8.540;2022-09-02T01:44:03;10.70;99.90
21861;DHT22;11095;48.066;8.540;2022-09-02T01:46:29;10.70;99.90
21861;DHT22;11095;48.066;8.540;2022-09-02T01:48:54;10.60;99.90
21861;DHT22;11095;48.066;8.540;2022-09-02T01:51:20;10.60;99.90
21861;DHT22;11095;48.066;8.540;2022-09-02T01:53:47;10.70;99.90
21861;DHT22;11095;48.066;8.540;2022-09-02T01:56:13;10.60;99.90
21861;DHT22;11095;48.066;8.540;2022-09-02T01:58:39;10.60;99.90
21861;DHT22;11095;48.066;8.540;2022-09-02T02:01:06;10.60;99.90
21861;DHT22;11095;48.066;8.540;2022-09-02T02:03:32;10.60;99.90
21861;DHT22;11095;48.066;8.540;2022-09-02T02:05:58;10.60;99.90
21861;DHT22;11095;48.066;8.540;2022-09-02T02:08:24;10.60;99.90
21861;DHT22;11095;48.066;8.540;2022-09-02T02:10:50;10.60;99.90
21861;DHT22;11095;48.066;8.540;2022-09-02T02:13:16;10.60;99.90
21861;DHT22;11095;48.066;8.540;2022-09-02T02:15:42;10.50;99.90
21861;DHT22;11095;48.066;8.540;2022-09-02T02:18:09;10.50;99.90
21861;DHT22;11095;48.066;8.540;2022-09-02T02:20:35;10.50;99.90
21861;DHT22;11095;48.066;8.540;2022-09-02T02:23:02;10.50;99.90
21861;DHT22;11095;48.066;8.540;2022-09-02T02:25:29;10.50;99.90
21861;DHT22;11095;48.066;8.540;2022-09-02T02:27:55;10.50;99.90
21861;DHT22;11095;48.066;8.540;2022-09-02T02:30:21;10.40;99.90
21861;DHT22;11095;48.066;8.540;2022-09-02T02:32:47;10.40;99.90
21861;DHT22;11095;48.066;8.540;2022-09-02T02:35:15;10.40;99.90
21861;DHT22;11095;48.066;8.540;2022-09-02T02:37:41;10.30;99.90
21861;DHT22;11095;48.066;8.540;2022-09-02T02:40:08;10.30;99.90
21861;DHT22;11095;48.066;8.540;2022-09-02T02:42:34;10.20;99.90
21861;DHT22;11095;48.066;8.540;2022-09-02T02:45:00;10.20;99.90
21861;DHT22;11095;48.066;8.540;2022-09-02T02:47:26;10.10;99.90
21861;DHT22;11095;48.066;8.540;2022-09-02T02:49:52;10.00;99.90
21861;DHT22;11095;48.066;8.540;2022-09-02T02:52:18;10.00;99.90
21861;DHT22;11095;48.066;8.540;2022-09-02T02:54:44;10.00;99.90
21861;DHT22;11095;48.066;8.540;2022-09-02T02:57:10;9.90;99.90
21861;DHT22;11095;48.066;8.540;2022-09-02T02:59:36;9.80;99.90
21861;DHT22;11095;48.066;8.540;2022-09-02T03:02:03;9.80;99.90
21861;DHT22;11095;48.066;8.540;2022-09-02T03:04:29;9.70;99.90
21861;DHT22;11095;48.066;8.540;2022-09-02T03:06:55;9.70;99.90
21861;DHT22;11095;48.066;8.540;2022-09-02T03:09:20;9.70;99.90
21861;DHT22;11095;48.066;8.540;2022-09-02T03:11:48;9.70;99.90
21861;DHT22;11095;48.066;8.540;2022-09-02T03:14:14;9.70;99.90
21861;DHT22;11095;48.066;8.540;2022-09-02T03:16:40;9.70;99.90
21861;DHT22;11095;48.066;8.540;2022-09-02T03:19:06;9.60;99.90
21861;DHT22;11095;48.066;8.540;2022-09-02T03:21:32;9.60;99.90
21861;DHT22;11095;48.066;8.540;2022-09-02T03:23:57;9.60;99.90
21861;DHT22;11095;48.066;8.540;2022-09-02T03:26:24;9.60;99.90
21861;DHT22;11095;48.066;8.540;2022-09-02T03:28:52;9.50;99.90
21861;DHT22;11095;48.066;8.540;2022-09-02T03:31:20;9.50;99.90
21861;DHT22;11095;48.066;8.540;2022-09-02T03:33:47;9.50;99.90
21861;DHT22;11095;48.066;8.540;2022-09-02T03:36:24;9.50;99.90
21861;DHT22;11095;48.066;8.540;2022-09-02T03:38:49;9.50;99.90
21861;DHT22;11095;48.066;8.540;2022-09-02T03:41:15;9.50;99.90
21861;DHT22;11095;48.066;8.540;2022-09-02T03:43:41;9.50;99.90
21861;DHT22;11095;48.066;8.540;2022-09-02T03:46:06;9.50;99.90
21861;DHT22;11095;48.066;8.540;2022-09-02T03:48:33;9.50;99.90
21861;DHT22;11095;48.066;8.540;2022-09-02T03:51:00;9.50;99.90
21861;DHT22;11095;48.066;8.540;2022-09-02T03:53:26;9.50;99.90
21861;DHT22;11095;48.066;8.540;2022-09-02T03:55:52;9.40;99.90
21861;DHT22;11095;48.066;8.540;2022-09-02T03:58:19;9.40;99.90
21861;DHT22;11095;48.066;8.540;2022-09-02T04:00:50;9.40;99.90
21861;DHT22;11095;48.066;8.540;2022-09-02T04:03:16;9.40;99.90
21861;DHT22;11095;48.066;8.540;2022-09-02T04:05:45;9.40;99.90
21861;DHT22;11095;48.066;8.540;2022-09-02T04:08:11;9.40;99.90
21861;DHT22;11095;48.066;8.540;2022-09-02T04:10:37;9.40;99.90
21861;DHT22;11095;48.066;8.540;2022-09-02T04:13:02;9.40;99.90
21861;DHT22;11095;48.066;8.540;2022-09-02T04:15:28;9.50;99.90
21861;DHT22;11095;48.066;8.540;2022-09-02T04:17:54;9.50;99.90
21861;DHT22;11095;48.066;8.540;2022-09-02T04:20:21;9.50;99.90
21861;DHT22;11095;48.066;8.540;2022-09-02T04:22:47;9.50;99.90
21861;DHT22;11095;48.066;8.540;2022-09-02T04:25:13;9.60;99.90
21861;DHT22;11095;48.066;8.540;2022-09-02T04:27:39;9.50;99.90
21861;DHT22;11095;48.066;8.540;2022-09-02T04:30:07;9.50;99.90
21861;DHT22;11095;48.066;8.540;2022-09-02T04:32:33;9.40;99.90
21861;DHT22;11095;48.066;8.540;2022-09-02T04:34:59;9.40;99.90
21861;DHT22;11095;48.066;8.540;2022-09-02T04:37:25;9.40;99.90
21861;DHT22;11095;48.066;8.540;2022-09-02T04:39:51;9.40;99.90
21861;DHT22;11095;48.066;8.540;2022-09-02T04:42:17;9.40;99.90
21861;DHT22;11095;48.066;8.540;2022-09-02T04:44:43;9.40;99.90
21861;DHT22;11095;48.066;8.540;2022-09-02T04:47:11;9.40;99.90
21861;DHT22;11095;48.066;8.540;2022-09-02T04:49:36;9.30;99.90
21861;DHT22;11095;48.066;8.540;2022-09-02T04:52:02;9.30;99.90
21861;DHT22;11095;48.066;8.540;2022-09-02T04:54:28;9.30;99.90
21861;DHT22;11095;48.066;8.540;2022-09-02T04:56:54;9.40;99.90
21861;DHT22;11095;48.066;8.540;2022-09-02T04:59:20;9.50;99.90
21861;DHT22;11095;48.066;8.540;2022-09-02T05:01:46;10.00;99.90
21861;DHT22;11095;48.066;8.540;2022-09-02T05:04:11;10.50;99.90
21861;DHT22;11095;48.066;8.540;2022-09-02T05:06:37;11.10;99.90
21861;DHT22;11095;48.066;8.540;2022-09-02T05:09:04;11.90;99.90
21861;DHT22;11095;48.066;8.540;2022-09-02T05:11:31;12.80;99.90
21861;DHT22;11095;48.066;8.540;2022-09-02T05:14:01;13.80;99.90
21861;DHT22;11095;48.066;8.540;2022-09-02T05:16:33;14.80;99.90
21861;DHT22;11095;48.066;8.540;2022-09-02T05:19:02;15.90;99.90
21861;DHT22;11095;48.066;8.540;2022-09-02T05:21:28;16.80;99.90
21861;DHT22;11095;48.066;8.540;2022-09-02T05:23:56;17.90;99.90
21861;DHT22;11095;48.066;8.540;2022-09-02T05:26:22;18.80;99.90
21861;DHT22;11095;48.066;8.540;2022-09-02T05:28:48;19.50;99.90
21861;DHT22;11095;48.066;8.540;2022-09-02T05:31:16;20.50;99.90
21861;DHT22;11095;48.066;8.540;2022-09-02T05:33:42;21.50;99.90
21861;DHT22;11095;48.066;8.540;2022-09-02T05:36:12;22.40;99.90
21861;DHT22;11095;48.066;8.540;2022-09-02T05:38:41;23.30;99.90
21861;DHT22;11095;48.066;8.540;2022-09-02T05:41:10;24.30;99.90
21861;DHT22;11095;48.066;8.540;2022-09-02T05:43:39;25.20;99.90
21861;DHT22;11095;48.066;8.540;2022-09-02T05:46:07;26.00;99.90
21861;DHT22;11095;48.066;8.540;2022-09-02T05:48:34;26.20;99.90
21861;DHT22;11095;48.066;8.540;2022-09-02T05:51:19;26.50;99.30
21861;DHT22;11095;48.066;8.540;2022-09-02T05:53:45;27.20;97.20
21861;DHT22;11095;48.066;8.540;2022-09-02T05:56:10;27.60;95.70
21861;DHT22;11095;48.066;8.540;2022-09-02T05:58:36;27.80;94.30
21861;DHT22;11095;48.066;8.540;2022-09-02T06:01:09;28.00;93.10
21861;DHT22;11095;48.066;8.540;2022-09-02T06:03:36;28.50;92.50
21861;DHT22;11095;48.066;8.540;2022-09-02T06:06:02;28.50;90.50
21861;DHT22;11095;48.066;8.540;2022-09-02T06:08:28;28.60;90.10
21861;DHT22;11095;48.066;8.540;2022-09-02T06:10:54;29.30;88.80
21861;DHT22;11095;48.066;8.540;2022-09-02T06:13:20;29.60;85.70
21861;DHT22;11095;48.066;8.540;2022-09-02T06:15:48;29.90;84.00
21861;DHT22;11095;48.066;8.540;2022-09-02T06:18:15;30.50;82.20
21861;DHT22;11095;48.066;8.540;2022-09-02T06:20:44;31.10;80.00
21861;DHT22;11095;48.066;8.540;2022-09-02T06:23:12;31.20;78.10
21861;DHT22;11095;48.066;8.540;2022-09-02T06:25:39;31.30;76.20
21861;DHT22;11095;48.066;8.540;2022-09-02T06:28:05;31.70;74.50
21861;DHT22;11095;48.066;8.540;2022-09-02T06:30:31;31.80;73.40
21861;DHT22;11095;48.066;8.540;2022-09-02T06:32:57;31.80;72.00
21861;DHT22;11095;48.066;8.540;2022-09-02T06:35:23;31.90;71.20
21861;DHT22;11095;48.066;8.540;2022-09-02T06:37:49;32.10;69.90
21861;DHT22;11095;48.066;8.540;2022-09-02T06:40:15;32.40;69.00
21861;DHT22;11095;48.066;8.540;2022-09-02T06:42:43;32.80;67.80
21861;DHT22;11095;48.066;8.540;2022-09-02T06:45:09;32.90;66.60
21861;DHT22;11095;48.066;8.540;2022-09-02T06:47:35;33.20;65.40
21861;DHT22;11095;48.066;8.540;2022-09-02T06:50:00;33.50;64.30
21861;DHT22;11095;48.066;8.540;2022-09-02T06:52:27;33.50;63.20
21861;DHT22;11095;48.066;8.540;2022-09-02T06:54:52;33.80;62.10
21861;DHT22;11095;48.066;8.540;2022-09-02T06:57:19;34.30;59.90
21861;DHT22;11095;48.066;8.540;2022-09-02T06:59:46;34.70;59.30
21861;DHT22;11095;48.066;8.540;2022-09-02T07:02:12;34.60;58.80
21861;DHT22;11095;48.066;8.540;2022-09-02T07:04:39;34.60;58.30
21861;DHT22;11095;48.066;8.540;2022-09-02T07:07:24;33.40;57.00
21861;DHT22;11095;48.066;8.540;2022-09-02T07:09:51;32.90;57.50
21861;DHT22;11095;48.066;8.540;2022-09-02T07:12:17;32.70;57.30
21861;DHT22;11095;48.066;8.540;2022-09-02T07:14:44;32.40;56.40
21861;DHT22;11095;48.066;8.540;2022-09-02T07:17:12;32.80;57.30
21861;DHT22;11095;48.066;8.540;2022-09-02T07:19:42;31.60;57.00
21861;DHT22;11095;48.066;8.540;2022-09-02T07:22:09;31.00;58.30
21861;DHT22;11095;48.066;8.540;2022-09-02T07:24:35;28.10;59.30
21861;DHT22;11095;48.066;8.540;2022-09-02T07:27:01;26.00;66.00
21861;DHT22;11095;48.066;8.540;2022-09-02T07:29:27;23.60;73.90
21861;DHT22;11095;48.066;8.540;2022-09-02T07:31:53;22.70;78.20
21861;DHT22;11095;48.066;8.540;2022-09-02T07:34:20;22.30;79.70
21861;DHT22;11095;48.066;8.540;2022-09-02T07:36:46;23.60;80.70
21861;DHT22;11095;48.066;8.540;2022-09-02T07:39:14;25.30;75.90
21861;DHT22;11095;48.066;8.540;2022-09-02T07:41:42;26.70;73.80
21861;DHT22;11095;48.066;8.540;2022-09-02T07:44:08;24.20;74.20
21861;DHT22;11095;48.066;8.540;2022-09-02T07:46:35;24.50;76.50
21861;DHT22;11095;48.066;8.540;2022-09-02T07:49:04;23.60;80.50
21861;DHT22;11095;48.066;8.540;2022-09-02T07:51:31;23.80;81.00
21861;DHT22;11095;48.066;8.540;2022-09-02T07:53:58;22.80;83.40
21861;DHT22;11095;48.066;8.540;2022-09-02T07:56:24;22.70;83.20
21861;DHT22;11095;48.066;8.540;2022-09-02T07:58:50;21.20;89.90
21861;DHT22;11095;48.066;8.540;2022-09-02T08:01:16;21.80;90.20
21861;DHT22;11095;48.066;8.540;2022-09-02T08:03:42;21.50;88.50
21861;DHT22;11095;48.066;8.540;2022-09-02T08:06:10;22.90;89.20
21861;DHT22;11095;48.066;8.540;2022-09-02T08:08:36;23.30;87.30
21861;DHT22;11095;48.066;8.540;2022-09-02T08:11:03;24.40;85.70
21861;DHT22;11095;48.066;8.540;2022-09-02T08:13:29;24.80;83.20
21861;DHT22;11095;48.066;8.540;2022-09-02T08:15:55;22.00;86.90
21861;DHT22;11095;48.066;8.540;2022-09-02T08:18:21;23.20;88.70
21861;DHT22;11095;48.066;8.540;2022-09-02T08:20:47;22.40;87.80
21861;DHT22;11095;48.066;8.540;2022-09-02T08:23:13;22.40;89.30
21861;DHT22;11095;48.066;8.540;2022-09-02T08:25:39;22.70;89.80
21861;DHT22;11095;48.066;8.540;2022-09-02T08:28:05;22.00;90.90
21861;DHT22;11095;48.066;8.540;2022-09-02T08:30:32;21.70;91.80
21861;DHT22;11095;48.066;8.540;2022-09-02T08:32:58;22.90;91.40
21861;DHT22;11095;48.066;8.540;2022-09-02T08:35:24;22.90;90.50
21861;DHT22;11095;48.066;8.540;2022-09-02T08:37:50;21.70;92.20
21861;DHT22;11095;48.066;8.540;2022-09-02T08:40:19;22.00;93.20
21861;DHT22;11095;48.066;8.540;2022-09-02T08:42:48;23.40;91.10
21861;DHT22;11095;48.066;8.540;2022-09-02T08:45:23;24.20;89.40
21861;DHT22;11095;48.066;8.540;2022-09-02T08:48:07;21.00;92.20
21861;DHT22;11095;48.066;8.540;2022-09-02T08:50:39;21.20;93.60
21861;DHT22;11095;48.066;8.540;2022-09-02T08:53:25;21.30;93.90
21861;DHT22;11095;48.066;8.540;2022-09-02T08:55:56;20.30;95.60
21861;DHT22;11095;48.066;8.540;2022-09-02T08:58:26;21.40;95.30
21861;DHT22;11095;48.066;8.540;2022-09-02T09:04:05;21.70;94.00
21861;DHT22;11095;48.066;8.540;2022-09-02T09:09:26;22.30;93.40
21861;DHT22;11095;48.066;8.540;2022-09-02T09:11:58;23.60;93.50
21861;DHT22;11095;48.066;8.540;2022-09-02T09:17:28;21.50;94.40
21861;DHT22;11095;48.066;8.540;2022-09-02T09:19:59;21.00;94.80
21861;DHT22;11095;48.066;8.540;2022-09-02T09:22:31;21.10;96.20
21861;DHT22;11095;48.066;8.540;2022-09-02T09:24:58;22.10;92.60
21861;DHT22;11095;48.066;8.540;2022-09-02T09:27:24;23.30;90.00
21861;DHT22;11095;48.066;8.540;2022-09-02T09:29:50;23.90;87.60
21861;DHT22;11095;48.066;8.540;2022-09-02T09:32:21;24.00;89.30
21861;DHT22;11095;48.066;8.540;2022-09-02T09:37:41;23.70;82.80
21861;DHT22;11095;48.066;8.540;2022-09-02T09:40:23;23.20;83.50
21861;DHT22;11095;48.066;8.540;2022-09-02T09:48:23;23.10;85.80
21861;DHT22;11095;48.066;8.540;2022-09-02T09:53:24;23.20;82.80
21861;DHT22;11095;48.066;8.540;2022-09-02T09:58:21;23.40;79.10
21861;DHT22;11095;48.066;8.540;2022-09-02T10:00:47;23.30;81.70
21861;DHT22;11095;48.066;8.540;2022-09-02T10:03:29;23.20;82.50
21861;DHT22;11095;48.066;8.540;2022-09-02T10:05:58;22.70;86.80
21861;DHT22;11095;48.066;8.540;2022-09-02T10:11:29;23.40;84.10
21861;DHT22;11095;48.066;8.540;2022-09-02T10:14:13;23.60;83.80
21861;DHT22;11095;48.066;8.540;2022-09-02T10:19:43;23.50;84.70
21861;DHT22;11095;48.066;8.540;2022-09-02T10:22:19;23.70;81.70
21861;DHT22;11095;48.066;8.540;2022-09-02T10:25:08;23.30;80.90
21861;DHT22;11095;48.066;8.540;2022-09-02T10:30:21;22.50;83.50
21861;DHT22;11095;48.066;8.540;2022-09-02T10:33:18;22.80;85.70
21861;DHT22;11095;48.066;8.540;2022-09-02T10:36:04;22.90;85.10
21861;DHT22;11095;48.066;8.540;2022-09-02T10:38:46;22.50;88.10
21861;DHT22;11095;48.066;8.540;2022-09-02T10:41:32;22.60;88.40
21861;DHT22;11095;48.066;8.540;2022-09-02T10:50:39;22.90;90.30
21861;DHT22;11095;48.066;8.540;2022-09-02T10:55:51;22.90;90.00
21861;DHT22;11095;48.066;8.540;2022-09-02T11:01:07;23.00;87.20
21861;DHT22;11095;48.066;8.540;2022-09-02T11:03:40;22.50;90.30
21861;DHT22;11095;48.066;8.540;2022-09-02T11:06:20;22.60;90.50
21861;DHT22;11095;48.066;8.540;2022-09-02T11:11:33;21.90;91.30
21861;DHT22;11095;48.066;8.540;2022-09-02T11:14:20;22.00;91.80
21861;DHT22;11095;48.066;8.540;2022-09-02T11:16:53;22.20;92.60
21861;DHT22;11095;48.066;8.540;2022-09-02T11:19:41;22.10;93.30
21861;DHT22;11095;48.066;8.540;2022-09-02T11:22:36;22.00;93.30
21861;DHT22;11095;48.066;8.540;2022-09-02T11:25:23;22.00;93.40
21861;DHT22;11095;48.066;8.540;2022-09-02T11:27:58;22.20;93.80
21861;DHT22;11095;48.066;8.540;2022-09-02T11:30:50;22.50;94.30
21861;DHT22;11095;48.066;8.540;2022-09-02T11:33:22;22.80;93.50
21861;DHT22;11095;48.066;8.540;2022-09-02T11:35:51;23.10;92.80
21861;DHT22;11095;48.066;8.540;2022-09-02T11:43:38;23.00;93.10
21861;DHT22;11095;48.066;8.540;2022-09-02T11:54:48;22.40;95.20
21861;DHT22;11095;48.066;8.540;2022-09-02T11:57:23;22.70;95.20
21861;DHT22;11095;48.066;8.540;2022-09-02T12:02:38;23.20;93.80
21861;DHT22;11095;48.066;8.540;2022-09-02T12:07:59;23.00;95.50
21861;DHT22;11095;48.066;8.540;2022-09-02T12:13:36;22.50;95.50
21861;DHT22;11095;48.066;8.540;2022-09-02T12:18:38;22.40;94.80
21861;DHT22;11095;48.066;8.540;2022-09-02T12:21:14;22.50;95.20
21861;DHT22;11095;48.066;8.540;2022-09-02T12:31:46;21.70;95.40
21861;DHT22;11095;48.066;8.540;2022-09-02T12:36:52;22.20;95.90
21861;DHT22;11095;48.066;8.540;2022-09-02T12:57:41;23.00;95.10
21861;DHT22;11095;48.066;8.540;2022-09-02T13:00:15;23.00;94.60
21861;DHT22;11095;48.066;8.540;2022-09-02T13:14:21;23.10;95.50
21861;DHT22;11095;48.066;8.540;2022-09-02T13:25:42;23.20;95.40
21861;DHT22;11095;48.066;8.540;2022-09-02T13:31:21;22.70;96.00
21861;DHT22;11095;48.066;8.540;2022-09-02T13:34:00;22.80;95.30
21861;DHT22;11095;48.066;8.540;2022-09-02T13:36:33;22.70;95.50
21861;DHT22;11095;48.066;8.540;2022-09-02T13:39:23;22.60;96.00
21861;DHT22;11095;48.066;8.540;2022-09-02T13:41:49;22.60;96.10
21861;DHT22;11095;48.066;8.540;2022-09-02T13:44:23;22.70;96.20
21861;DHT22;11095;48.066;8.540;2022-09-02T13:47:04;22.90;97.00
21861;DHT22;11095;48.066;8.540;2022-09-02T13:49:39;23.10;96.00
21861;DHT22;11095;48.066;8.540;2022-09-02T13:52:11;23.30;96.10
21861;DHT22;11095;48.066;8.540;2022-09-02T13:54:39;23.40;96.00
21861;DHT22;11095;48.066;8.540;2022-09-02T13:57:11;23.40;95.90
21861;DHT22;11095;48.066;8.540;2022-09-02T13:59:50;23.40;95.30
21861;DHT22;11095;48.066;8.540;2022-09-02T14:05:02;23.50;95.20
21861;DHT22;11095;48.066;8.540;2022-09-02T14:07:36;23.40;95.10
21861;DHT22;11095;48.066;8.540;2022-09-02T14:10:10;23.10;96.20
21861;DHT22;11095;48.066;8.540;2022-09-02T14:12:37;22.80;96.70
21861;DHT22;11095;48.066;8.540;2022-09-02T14:15:07;22.70;96.70
21861;DHT22;11095;48.066;8.540;2022-09-02T14:17:33;22.60;96.70
21861;DHT22;11095;48.066;8.540;2022-09-02T14:22:34;22.70;97.00
21861;DHT22;11095;48.066;8.540;2022-09-02T14:25:08;22.70;97.30
21861;DHT22;11095;48.066;8.540;2022-09-02T14:27:34;22.90;97.00
21861;DHT22;11095;48.066;8.540;2022-09-02T14:30:00;22.90;97.40
21861;DHT22;11095;48.066;8.540;2022-09-02T14:32:27;23.00;96.80
21861;DHT22;11095;48.066;8.540;2022-09-02T14:37:53;23.00;96.90
21861;DHT22;11095;48.066;8.540;2022-09-02T14:40:37;23.10;97.60
21861;DHT22;11095;48.066;8.540;2022-09-02T14:43:10;23.30;96.70
21861;DHT22;11095;48.066;8.540;2022-09-02T14:45:39;23.30;96.30
21861;DHT22;11095;48.066;8.540;2022-09-02T14:48:22;23.30;96.40
21861;DHT22;11095;48.066;8.540;2022-09-02T14:51:00;23.30;96.90
21861;DHT22;11095;48.066;8.540;2022-09-02T14:53:27;23.30;96.90
21861;DHT22;11095;48.066;8.540;2022-09-02T14:55:54;23.40;96.80
21861;DHT22;11095;48.066;8.540;2022-09-02T14:58:22;23.30;96.70
21861;DHT22;11095;48.066;8.540;2022-09-02T15:00:53;23.30;97.40
21861;DHT22;11095;48.066;8.540;2022-09-02T15:03:21;23.30;97.10
21861;DHT22;11095;48.066;8.540;2022-09-02T15:05:47;23.40;97.50
21861;DHT22;11095;48.066;8.540;2022-09-02T15:08:14;23.50;96.70
21861;DHT22;11095;48.066;8.540;2022-09-02T15:10:40;23.50;96.30
21861;DHT22;11095;48.066;8.540;2022-09-02T15:13:10;23.40;96.30
21861;DHT22;11095;48.066;8.540;2022-09-02T15:15:37;23.30;96.80
21861;DHT22;11095;48.066;8.540;2022-09-02T15:18:03;23.40;97.00
21861;DHT22;11095;48.066;8.540;2022-09-02T15:20:30;23.50;96.20
21861;DHT22;11095;48.066;8.540;2022-09-02T15:22:56;23.50;96.50
21861;DHT22;11095;48.066;8.540;2022-09-02T15:25:21;23.60;96.30
21861;DHT22;11095;48.066;8.540;2022-09-02T15:27:47;23.50;96.50
21861;DHT22;11095;48.066;8.540;2022-09-02T15:30:13;23.40;97.00
21861;DHT22;11095;48.066;8.540;2022-09-02T15:32:39;23.60;97.10
21861;DHT22;11095;48.066;8.540;2022-09-02T15:35:06;23.80;96.80
21861;DHT22;11095;48.066;8.540;2022-09-02T15:37:32;24.00;95.90
21861;DHT22;11095;48.066;8.540;2022-09-02T15:40:02;23.90;95.90
21861;DHT22;11095;48.066;8.540;2022-09-02T15:42:28;23.60;96.70
21861;DHT22;11095;48.066;8.540;2022-09-02T15:44:54;23.50;97.60
21861;DHT22;11095;48.066;8.540;2022-09-02T15:47:19;23.30;97.20
21861;DHT22;11095;48.066;8.540;2022-09-02T15:49:45;23.20;97.90
21861;DHT22;11095;48.066;8.540;2022-09-02T15:52:11;23.00;98.30
21861;DHT22;11095;48.066;8.540;2022-09-02T15:54:36;22.90;99.10
21861;DHT22;11095;48.066;8.540;2022-09-02T15:57:02;22.80;99.60
21861;DHT22;11095;48.066;8.540;2022-09-02T15:59:27;22.80;99.90
21861;DHT22;11095;48.066;8.540;2022-09-02T16:01:56;22.70;99.90
21861;DHT22;11095;48.066;8.540;2022-09-02T16:04:25;22.60;99.90
21861;DHT22;11095;48.066;8.540;2022-09-02T16:06:51;22.50;99.90
21861;DHT22;11095;48.066;8.540;2022-09-02T16:09:18;22.40;99.90
21861;DHT22;11095;48.066;8.540;2022-09-02T16:11:49;22.20;99.90
21861;DHT22;11095;48.066;8.540;2022-09-02T16:14:15;22.10;99.90
21861;DHT22;11095;48.066;8.540;2022-09-02T16:16:41;22.10;99.90
21861;DHT22;11095;48.066;8.540;2022-09-02T16:19:07;22.10;99.90
21861;DHT22;11095;48.066;8.540;2022-09-02T16:21:34;22.00;99.90
21861;DHT22;11095;48.066;8.540;2022-09-02T16:23:59;21.90;99.90
21861;DHT22;11095;48.066;8.540;2022-09-02T16:26:28;21.90;99.90
21861;DHT22;11095;48.066;8.540;2022-09-02T16:29:06;21.90;99.90
21861;DHT22;11095;48.066;8.540;2022-09-02T16:31:33;21.80;99.90
21861;DHT22;11095;48.066;8.540;2022-09-02T16:34:06;21.80;99.90
21861;DHT22;11095;48.066;8.540;2022-09-02T16:36:35;21.80;99.90
21861;DHT22;11095;48.066;8.540;2022-09-02T16:39:02;21.70;99.90
21861;DHT22;11095;48.066;8.540;2022-09-02T16:41:33;21.60;99.90
21861;DHT22;11095;48.066;8.540;2022-09-02T16:44:01;21.50;99.90
21861;DHT22;11095;48.066;8.540;2022-09-02T16:46:28;21.40;99.90
21861;DHT22;11095;48.066;8.540;2022-09-02T16:48:53;21.30;99.90
21861;DHT22;11095;48.066;8.540;2022-09-02T16:51:23;21.20;99.90
21861;DHT22;11095;48.066;8.540;2022-09-02T16:53:57;21.10;99.90
21861;DHT22;11095;48.066;8.540;2022-09-02T16:56:23;20.70;99.90
21861;DHT22;11095;48.066;8.540;2022-09-02T16:58:49;19.70;99.90
21861;DHT22;11095;48.066;8.540;2022-09-02T17:01:15;18.90;99.90
21861;DHT22;11095;48.066;8.540;2022-09-02T17:03:43;18.20;99.90
21861;DHT22;11095;48.066;8.540;2022-09-02T17:06:10;17.70;99.90
21861;DHT22;11095;48.066;8.540;2022-09-02T17:08:36;17.40;99.90
21861;DHT22;11095;48.066;8.540;2022-09-02T17:13:44;16.90;99.90
21861;DHT22;11095;48.066;8.540;2022-09-02T17:16:10;16.70;99.90
21861;DHT22;11095;48.066;8.540;2022-09-02T17:18:36;16.50;99.90
21861;DHT22;11095;48.066;8.540;2022-09-02T17:21:29;16.40;99.90
21861;DHT22;11095;48.066;8.540;2022-09-02T17:23:59;16.30;99.90
21861;DHT22;11095;48.066;8.540;2022-09-02T17:26:26;16.20;99.90
21861;DHT22;11095;48.066;8.540;2022-09-02T17:28:54;16.10;99.90
21861;DHT22;11095;48.066;8.540;2022-09-02T17:31:25;16.10;99.90
21861;DHT22;11095;48.066;8.540;2022-09-02T17:33:52;16.00;99.90
21861;DHT22;11095;48.066;8.540;2022-09-02T17:36:19;16.00;99.90
21861;DHT22;11095;48.066;8.540;2022-09-02T17:38:45;16.00;99.90
21861;DHT22;11095;48.066;8.540;2022-09-02T17:41:11;16.00;99.90
21861;DHT22;11095;48.066;8.540;2022-09-02T17:43:55;16.00;99.90
21861;DHT22;11095;48.066;8.540;2022-09-02T17:46:21;16.00;99.90
21861;DHT22;11095;48.066;8.540;2022-09-02T17:48:47;16.00;99.90
21861;DHT22;11095;48.066;8.540;2022-09-02T17:51:12;16.00;99.90
21861;DHT22;11095;48.066;8.540;2022-09-02T17:53:38;16.00;99.90
21861;DHT22;11095;48.066;8.540;2022-09-02T18:01:52;16.00;99.90
21861;DHT22;11095;48.066;8.540;2022-09-02T18:10:06;16.00;99.90